Terminal Aerodrome Forecast
Issued by NWS

Home | Current Version | Previous Version | Text Only | Print | Product List | Glossary Off
Versions: 1 2 3 4 5 6 7 8 9 10 11 12 13 14 15 16 17

000
FTUS43 KTOP 012329
TAFMHK
TAF
KMHK 012329Z 0200/0224 04007KT P6SM SCT120
     FM020600 05003KT P6SM BKN015
     FM021500 04005KT P6SM VCTS BKN035CB=

USA.gov is the U.S. government's official web portal to all federal, state and local government web resources and services.